sensor_id;sensor_type;location;lat;lon;timestamp;temperature;humidity
9939;DHT22;5008;50.656;7.188;2023-04-24T04:01:35;9.80;99.90
9939;DHT22;5008;50.656;7.188;2023-04-24T04:04:02;9.70;99.90
9939;DHT22;5008;50.656;7.188;2023-04-24T04:06:29;9.80;99.90
9939;DHT22;5008;50.656;7.188;2023-04-24T04:08:57;9.80;99.90
9939;DHT22;5008;50.656;7.188;2023-04-24T04:11:24;9.80;99.90
9939;DHT22;5008;50.656;7.188;2023-04-24T04:13:51;9.80;99.90
9939;DHT22;5008;50.656;7.188;2023-04-24T04:16:18;9.80;99.90
9939;DHT22;5008;50.656;7.188;2023-04-24T04:18:46;9.80;99.90
9939;DHT22;5008;50.656;7.188;2023-04-24T04:21:13;9.70;99.90
9939;DHT22;5008;50.656;7.188;2023-04-24T04:23:40;9.70;99.90
9939;DHT22;5008;50.656;7.188;2023-04-24T04:26:07;9.70;99.90
9939;DHT22;5008;50.656;7.188;2023-04-24T04:28:36;9.80;99.90
9939;DHT22;5008;50.656;7.188;2023-04-24T04:31:03;9.70;99.90
9939;DHT22;5008;50.656;7.188;2023-04-24T04:33:30;9.70;99.90
9939;DHT22;5008;50.656;7.188;2023-04-24T04:35:58;9.70;99.90
9939;DHT22;5008;50.656;7.188;2023-04-24T04:38:25;9.70;99.90
9939;DHT22;5008;50.656;7.188;2023-04-24T04:40:55;9.70;99.90
9939;DHT22;5008;50.656;7.188;2023-04-24T04:43:23;9.70;99.90
9939;DHT22;5008;50.656;7.188;2023-04-24T04:45:50;9.70;99.90
9939;DHT22;5008;50.656;7.188;2023-04-24T04:48:17;9.80;99.90
9939;DHT22;5008;50.656;7.188;2023-04-24T04:50:44;9.80;99.90
9939;DHT22;5008;50.656;7.188;2023-04-24T04:53:12;9.80;99.90
9939;DHT22;5008;50.656;7.188;2023-04-24T04:55:39;9.80;99.90
9939;DHT22;5008;50.656;7.188;2023-04-24T04:58:06;9.80;99.90
9939;DHT22;5008;50.656;7.188;2023-04-24T05:00:32;9.90;99.90
9939;DHT22;5008;50.656;7.188;2023-04-24T05:03:02;9.90;99.90
9939;DHT22;5008;50.656;7.188;2023-04-24T05:05:29;9.90;99.90
9939;DHT22;5008;50.656;7.188;2023-04-24T05:07:55;10.00;99.90
9939;DHT22;5008;50.656;7.188;2023-04-24T05:10:24;10.00;99.90
9939;DHT22;5008;50.656;7.188;2023-04-24T05:12:51;10.20;99.90
9939;DHT22;5008;50.656;7.188;2023-04-24T05:15:17;10.50;99.90
9939;DHT22;5008;50.656;7.188;2023-04-24T05:17:44;10.80;99.90
9939;DHT22;5008;50.656;7.188;2023-04-24T05:20:11;10.90;99.90
9939;DHT22;5008;50.656;7.188;2023-04-24T05:22:38;10.90;99.90
9939;DHT22;5008;50.656;7.188;2023-04-24T05:25:05;10.80;99.90
9939;DHT22;5008;50.656;7.188;2023-04-24T05:27:34;10.70;99.90
9939;DHT22;5008;50.656;7.188;2023-04-24T05:30:01;10.70;99.90
9939;DHT22;5008;50.656;7.188;2023-04-24T05:32:28;11.10;99.90
9939;DHT22;5008;50.656;7.188;2023-04-24T05:34:55;11.20;99.90
9939;DHT22;5008;50.656;7.188;2023-04-24T05:37:28;11.10;99.90
9939;DHT22;5008;50.656;7.188;2023-04-24T05:39:55;11.00;99.90
9939;DHT22;5008;50.656;7.188;2023-04-24T05:42:22;11.10;99.90
9939;DHT22;5008;50.656;7.188;2023-04-24T05:44:50;11.20;99.90
9939;DHT22;5008;50.656;7.188;2023-04-24T05:47:19;11.20;99.90
9939;DHT22;5008;50.656;7.188;2023-04-24T05:49:47;11.30;99.90
9939;DHT22;5008;50.656;7.188;2023-04-24T05:52:13;11.30;99.90
9939;DHT22;5008;50.656;7.188;2023-04-24T05:54:40;11.40;99.90
9939;DHT22;5008;50.656;7.188;2023-04-24T05:57:07;11.50;99.90
9939;DHT22;5008;50.656;7.188;2023-04-24T05:59:36;11.50;99.90
9939;DHT22;5008;50.656;7.188;2023-04-24T06:02:04;11.40;99.90
9939;DHT22;5008;50.656;7.188;2023-04-24T06:04:32;11.30;99.90
9939;DHT22;5008;50.656;7.188;2023-04-24T06:06:59;11.20;99.90
9939;DHT22;5008;50.656;7.188;2023-04-24T06:09:26;11.20;99.90
9939;DHT22;5008;50.656;7.188;2023-04-24T06:11:53;11.10;99.90
9939;DHT22;5008;50.656;7.188;2023-04-24T06:14:20;11.20;99.90
9939;DHT22;5008;50.656;7.188;2023-04-24T06:16:47;11.20;99.90
9939;DHT22;5008;50.656;7.188;2023-04-24T06:19:15;11.20;99.90
9939;DHT22;5008;50.656;7.188;2023-04-24T06:21:42;11.20;99.90
9939;DHT22;5008;50.656;7.188;2023-04-24T06:24:09;11.10;99.90
9939;DHT22;5008;50.656;7.188;2023-04-24T06:26:35;11.20;99.90
9939;DHT22;5008;50.656;7.188;2023-04-24T06:29:02;11.20;99.90
9939;DHT22;5008;50.656;7.188;2023-04-24T06:31:29;11.40;99.90
9939;DHT22;5008;50.656;7.188;2023-04-24T06:34:00;11.40;99.90
9939;DHT22;5008;50.656;7.188;2023-04-24T06:36:28;11.40;99.90
9939;DHT22;5008;50.656;7.188;2023-04-24T06:38:56;11.40;99.90
9939;DHT22;5008;50.656;7.188;2023-04-24T06:41:23;11.40;99.90
9939;DHT22;5008;50.656;7.188;2023-04-24T06:43:50;11.50;99.90
9939;DHT22;5008;50.656;7.188;2023-04-24T06:46:17;11.50;99.90
9939;DHT22;5008;50.656;7.188;2023-04-24T06:48:44;11.60;99.90
9939;DHT22;5008;50.656;7.188;2023-04-24T06:51:11;11.50;99.90
9939;DHT22;5008;50.656;7.188;2023-04-24T06:53:39;11.60;99.90
9939;DHT22;5008;50.656;7.188;2023-04-24T06:56:06;11.50;99.90
9939;DHT22;5008;50.656;7.188;2023-04-24T06:58:32;11.60;99.90
9939;DHT22;5008;50.656;7.188;2023-04-24T07:00:59;11.50;99.90
9939;DHT22;5008;50.656;7.188;2023-04-24T07:03:26;11.60;99.90
9939;DHT22;5008;50.656;7.188;2023-04-24T07:05:54;11.40;99.90
9939;DHT22;5008;50.656;7.188;2023-04-24T07:08:21;11.50;99.90
9939;DHT22;5008;50.656;7.188;2023-04-24T07:10:50;11.40;99.90
9939;DHT22;5008;50.656;7.188;2023-04-24T07:13:17;11.30;99.90
9939;DHT22;5008;50.656;7.188;2023-04-24T07:15:44;11.20;99.90
9939;DHT22;5008;50.656;7.188;2023-04-24T07:18:11;11.10;99.90
9939;DHT22;5008;50.656;7.188;2023-04-24T07:20:39;11.00;99.90
9939;DHT22;5008;50.656;7.188;2023-04-24T07:23:06;10.90;99.90
9939;DHT22;5008;50.656;7.188;2023-04-24T07:25:33;10.90;99.90
9939;DHT22;5008;50.656;7.188;2023-04-24T07:28:01;11.00;99.90
9939;DHT22;5008;50.656;7.188;2023-04-24T07:30:28;10.90;99.90
9939;DHT22;5008;50.656;7.188;2023-04-24T07:32:55;10.80;99.90
9939;DHT22;5008;50.656;7.188;2023-04-24T07:35:22;10.90;99.90
9939;DHT22;5008;50.656;7.188;2023-04-24T07:37:50;10.90;99.90
9939;DHT22;5008;50.656;7.188;2023-04-24T07:40:17;10.80;99.90
9939;DHT22;5008;50.656;7.188;2023-04-24T07:42:44;10.90;99.90
9939;DHT22;5008;50.656;7.188;2023-04-24T07:45:15;11.00;99.90
9939;DHT22;5008;50.656;7.188;2023-04-24T07:47:42;11.00;99.90
9939;DHT22;5008;50.656;7.188;2023-04-24T07:50:11;11.00;99.90
9939;DHT22;5008;50.656;7.188;2023-04-24T07:52:38;10.90;99.90
9939;DHT22;5008;50.656;7.188;2023-04-24T07:55:05;10.80;99.90
9939;DHT22;5008;50.656;7.188;2023-04-24T07:57:32;10.70;99.90
9939;DHT22;5008;50.656;7.188;2023-04-24T07:59:59;10.70;99.90
9939;DHT22;5008;50.656;7.188;2023-04-24T08:02:27;10.70;99.90
9939;DHT22;5008;50.656;7.188;2023-04-24T08:04:54;10.80;99.90
9939;DHT22;5008;50.656;7.188;2023-04-24T08:07:21;10.80;99.90
9939;DHT22;5008;50.656;7.188;2023-04-24T08:09:48;10.80;99.90
9939;DHT22;5008;50.656;7.188;2023-04-24T08:12:15;10.70;99.90
9939;DHT22;5008;50.656;7.188;2023-04-24T08:14:42;10.70;99.90
9939;DHT22;5008;50.656;7.188;2023-04-24T08:17:08;10.70;99.90
9939;DHT22;5008;50.656;7.188;2023-04-24T08:19:37;10.70;99.90
9939;DHT22;5008;50.656;7.188;2023-04-24T08:22:03;10.60;99.90
9939;DHT22;5008;50.656;7.188;2023-04-24T08:24:30;10.60;99.90
9939;DHT22;5008;50.656;7.188;2023-04-24T08:26:57;10.50;99.90
9939;DHT22;5008;50.656;7.188;2023-04-24T08:29:24;10.50;99.90
9939;DHT22;5008;50.656;7.188;2023-04-24T08:31:52;10.40;99.90
9939;DHT22;5008;50.656;7.188;2023-04-24T08:34:20;10.30;99.90
9939;DHT22;5008;50.656;7.188;2023-04-24T08:36:49;10.30;99.90
9939;DHT22;5008;50.656;7.188;2023-04-24T08:39:17;10.40;99.90
9939;DHT22;5008;50.656;7.188;2023-04-24T08:41:44;10.40;99.90
9939;DHT22;5008;50.656;7.188;2023-04-24T08:44:12;10.40;99.90
9939;DHT22;5008;50.656;7.188;2023-04-24T08:46:44;10.30;99.90
9939;DHT22;5008;50.656;7.188;2023-04-24T08:49:13;10.40;99.90
9939;DHT22;5008;50.656;7.188;2023-04-24T08:51:41;10.50;99.90
9939;DHT22;5008;50.656;7.188;2023-04-24T08:54:11;10.60;99.90
9939;DHT22;5008;50.656;7.188;2023-04-24T08:56:38;10.30;99.90
9939;DHT22;5008;50.656;7.188;2023-04-24T08:59:07;10.20;99.90
9939;DHT22;5008;50.656;7.188;2023-04-24T09:01:37;10.20;99.90
9939;DHT22;5008;50.656;7.188;2023-04-24T09:04:07;10.20;99.90
9939;DHT22;5008;50.656;7.188;2023-04-24T09:06:35;10.00;99.90
9939;DHT22;5008;50.656;7.188;2023-04-24T09:09:02;10.00;99.90
9939;DHT22;5008;50.656;7.188;2023-04-24T09:11:31;10.00;99.90
9939;DHT22;5008;50.656;7.188;2023-04-24T09:13:59;10.00;99.90
9939;DHT22;5008;50.656;7.188;2023-04-24T09:16:27;10.00;99.90
9939;DHT22;5008;50.656;7.188;2023-04-24T09:18:55;10.00;99.90
9939;DHT22;5008;50.656;7.188;2023-04-24T09:21:22;10.00;99.90
9939;DHT22;5008;50.656;7.188;2023-04-24T09:23:58;10.00;99.90
9939;DHT22;5008;50.656;7.188;2023-04-24T09:26:25;10.10;99.90
9939;DHT22;5008;50.656;7.188;2023-04-24T09:28:53;10.10;99.90
9939;DHT22;5008;50.656;7.188;2023-04-24T09:31:20;10.10;99.90
9939;DHT22;5008;50.656;7.188;2023-04-24T09:33:53;10.00;99.90
9939;DHT22;5008;50.656;7.188;2023-04-24T09:36:27;10.10;99.90
9939;DHT22;5008;50.656;7.188;2023-04-24T09:38:58;10.00;99.90
9939;DHT22;5008;50.656;7.188;2023-04-24T09:41:26;10.10;99.90
9939;DHT22;5008;50.656;7.188;2023-04-24T09:43:55;10.20;99.90
9939;DHT22;5008;50.656;7.188;2023-04-24T09:46:29;10.30;99.90
9939;DHT22;5008;50.656;7.188;2023-04-24T09:48:57;10.40;99.90
9939;DHT22;5008;50.656;7.188;2023-04-24T09:51:34;10.50;99.90
9939;DHT22;5008;50.656;7.188;2023-04-24T09:54:02;10.60;99.90
9939;DHT22;5008;50.656;7.188;2023-04-24T09:56:32;10.60;99.90
9939;DHT22;5008;50.656;7.188;2023-04-24T09:59:05;10.70;99.90
9939;DHT22;5008;50.656;7.188;2023-04-24T10:01:33;10.40;99.90
9939;DHT22;5008;50.656;7.188;2023-04-24T10:04:00;10.40;99.90
9939;DHT22;5008;50.656;7.188;2023-04-24T10:06:32;10.60;99.90
9939;DHT22;5008;50.656;7.188;2023-04-24T10:08:59;10.60;99.90
9939;DHT22;5008;50.656;7.188;2023-04-24T10:11:27;10.40;99.90
9939;DHT22;5008;50.656;7.188;2023-04-24T10:13:54;10.30;99.90
9939;DHT22;5008;50.656;7.188;2023-04-24T10:16:24;10.20;99.90
9939;DHT22;5008;50.656;7.188;2023-04-24T10:18:52;10.10;99.90
9939;DHT22;5008;50.656;7.188;2023-04-24T10:21:19;10.10;99.90
9939;DHT22;5008;50.656;7.188;2023-04-24T10:23:48;10.00;99.90
9939;DHT22;5008;50.656;7.188;2023-04-24T10:26:16;10.00;99.90
9939;DHT22;5008;50.656;7.188;2023-04-24T10:28:45;10.00;99.90
9939;DHT22;5008;50.656;7.188;2023-04-24T10:31:12;10.00;99.90
9939;DHT22;5008;50.656;7.188;2023-04-24T10:33:42;9.90;99.90
9939;DHT22;5008;50.656;7.188;2023-04-24T10:36:10;9.90;99.90
9939;DHT22;5008;50.656;7.188;2023-04-24T10:38:38;9.90;99.90
9939;DHT22;5008;50.656;7.188;2023-04-24T10:41:07;9.80;99.90
9939;DHT22;5008;50.656;7.188;2023-04-24T10:43:35;9.80;99.90
9939;DHT22;5008;50.656;7.188;2023-04-24T10:46:02;9.70;99.90
9939;DHT22;5008;50.656;7.188;2023-04-24T10:48:30;9.70;99.90
9939;DHT22;5008;50.656;7.188;2023-04-24T10:50:59;9.80;99.90
9939;DHT22;5008;50.656;7.188;2023-04-24T10:53:28;9.80;99.90
9939;DHT22;5008;50.656;7.188;2023-04-24T10:55:58;9.80;99.90
9939;DHT22;5008;50.656;7.188;2023-04-24T10:58:36;9.80;99.90
9939;DHT22;5008;50.656;7.188;2023-04-24T11:01:04;10.00;99.90
9939;DHT22;5008;50.656;7.188;2023-04-24T11:03:32;10.20;99.90
9939;DHT22;5008;50.656;7.188;2023-04-24T11:06:02;10.10;99.90
9939;DHT22;5008;50.656;7.188;2023-04-24T11:08:31;10.10;99.90
9939;DHT22;5008;50.656;7.188;2023-04-24T11:11:01;10.10;99.90
9939;DHT22;5008;50.656;7.188;2023-04-24T11:14:04;10.10;99.90
9939;DHT22;5008;50.656;7.188;2023-04-24T11:16:33;10.50;99.90
9939;DHT22;5008;50.656;7.188;2023-04-24T11:19:02;10.90;99.90
9939;DHT22;5008;50.656;7.188;2023-04-24T11:21:38;11.20;99.90
9939;DHT22;5008;50.656;7.188;2023-04-24T11:24:23;11.70;99.90
9939;DHT22;5008;50.656;7.188;2023-04-24T11:26:51;12.10;99.90
9939;DHT22;5008;50.656;7.188;2023-04-24T11:29:20;12.30;99.90
9939;DHT22;5008;50.656;7.188;2023-04-24T11:31:47;12.50;99.90
9939;DHT22;5008;50.656;7.188;2023-04-24T11:34:17;12.30;99.90
9939;DHT22;5008;50.656;7.188;2023-04-24T11:36:46;12.10;99.90
9939;DHT22;5008;50.656;7.188;2023-04-24T11:39:13;12.10;99.90
9939;DHT22;5008;50.656;7.188;2023-04-24T11:41:41;12.10;99.90
9939;DHT22;5008;50.656;7.188;2023-04-24T11:44:09;12.20;99.90
9939;DHT22;5008;50.656;7.188;2023-04-24T11:46:36;12.40;99.90
9939;DHT22;5008;50.656;7.188;2023-04-24T11:49:05;12.40;99.90
9939;DHT22;5008;50.656;7.188;2023-04-24T11:51:32;12.40;99.90
9939;DHT22;5008;50.656;7.188;2023-04-24T11:54:02;12.30;99.90
9939;DHT22;5008;50.656;7.188;2023-04-24T11:56:29;12.10;99.90
9939;DHT22;5008;50.656;7.188;2023-04-24T11:58:56;12.10;99.90
9939;DHT22;5008;50.656;7.188;2023-04-24T12:01:23;12.10;99.90
9939;DHT22;5008;50.656;7.188;2023-04-24T12:03:50;12.20;99.90
9939;DHT22;5008;50.656;7.188;2023-04-24T12:06:17;12.20;99.90
9939;DHT22;5008;50.656;7.188;2023-04-24T12:08:48;12.10;99.90
9939;DHT22;5008;50.656;7.188;2023-04-24T12:11:17;11.80;99.90
9939;DHT22;5008;50.656;7.188;2023-04-24T12:13:46;11.70;99.90
9939;DHT22;5008;50.656;7.188;2023-04-24T12:16:13;11.70;99.90
9939;DHT22;5008;50.656;7.188;2023-04-24T12:18:43;11.60;99.90
9939;DHT22;5008;50.656;7.188;2023-04-24T12:21:18;11.50;99.90
9939;DHT22;5008;50.656;7.188;2023-04-24T12:23:45;11.40;99.90
9939;DHT22;5008;50.656;7.188;2023-04-24T12:26:12;11.40;99.90
9939;DHT22;5008;50.656;7.188;2023-04-24T12:28:47;11.30;99.90
9939;DHT22;5008;50.656;7.188;2023-04-24T12:31:15;11.30;99.90
9939;DHT22;5008;50.656;7.188;2023-04-24T12:33:42;11.20;99.90
9939;DHT22;5008;50.656;7.188;2023-04-24T12:36:10;11.20;99.90
9939;DHT22;5008;50.656;7.188;2023-04-24T12:38:38;11.40;99.90
9939;DHT22;5008;50.656;7.188;2023-04-24T12:41:07;11.50;99.90
9939;DHT22;5008;50.656;7.188;2023-04-24T12:43:35;12.10;99.90
9939;DHT22;5008;50.656;7.188;2023-04-24T12:46:04;12.60;99.90
9939;DHT22;5008;50.656;7.188;2023-04-24T12:48:31;13.30;99.90
9939;DHT22;5008;50.656;7.188;2023-04-24T12:50:58;14.00;99.90
9939;DHT22;5008;50.656;7.188;2023-04-24T12:53:27;14.20;99.90
9939;DHT22;5008;50.656;7.188;2023-04-24T12:55:56;14.50;99.90
9939;DHT22;5008;50.656;7.188;2023-04-24T12:58:23;14.70;99.90
9939;DHT22;5008;50.656;7.188;2023-04-24T13:00:50;14.60;99.90
9939;DHT22;5008;50.656;7.188;2023-04-24T13:03:19;14.30;99.90
9939;DHT22;5008;50.656;7.188;2023-04-24T13:05:48;14.40;99.90
9939;DHT22;5008;50.656;7.188;2023-04-24T13:08:15;14.30;99.90
9939;DHT22;5008;50.656;7.188;2023-04-24T13:10:42;14.00;99.90
9939;DHT22;5008;50.656;7.188;2023-04-24T13:13:08;13.60;99.90
9939;DHT22;5008;50.656;7.188;2023-04-24T13:15:35;13.30;99.90
9939;DHT22;5008;50.656;7.188;2023-04-24T13:18:02;13.00;99.90
9939;DHT22;5008;50.656;7.188;2023-04-24T13:20:31;12.80;99.90
9939;DHT22;5008;50.656;7.188;2023-04-24T13:22:57;12.60;99.90
9939;DHT22;5008;50.656;7.188;2023-04-24T13:25:25;12.40;99.90
9939;DHT22;5008;50.656;7.188;2023-04-24T13:27:52;12.10;99.90
9939;DHT22;5008;50.656;7.188;2023-04-24T13:30:19;12.00;99.90
9939;DHT22;5008;50.656;7.188;2023-04-24T13:32:46;12.00;99.90
9939;DHT22;5008;50.656;7.188;2023-04-24T13:35:13;12.20;99.90
9939;DHT22;5008;50.656;7.188;2023-04-24T13:37:41;13.50;99.90
9939;DHT22;5008;50.656;7.188;2023-04-24T13:40:09;15.50;99.90
9939;DHT22;5008;50.656;7.188;2023-04-24T13:42:36;17.00;99.90
9939;DHT22;5008;50.656;7.188;2023-04-24T13:45:04;18.20;99.90
9939;DHT22;5008;50.656;7.188;2023-04-24T13:47:31;17.70;99.90
9939;DHT22;5008;50.656;7.188;2023-04-24T13:49:57;18.00;99.90
9939;DHT22;5008;50.656;7.188;2023-04-24T13:52:24;17.80;99.90
9939;DHT22;5008;50.656;7.188;2023-04-24T13:54:52;17.20;99.90
9939;DHT22;5008;50.656;7.188;2023-04-24T13:57:20;16.50;99.90
9939;DHT22;5008;50.656;7.188;2023-04-24T13:59:47;16.60;99.90
9939;DHT22;5008;50.656;7.188;2023-04-24T14:02:13;17.20;99.90
9939;DHT22;5008;50.656;7.188;2023-04-24T14:04:43;17.40;99.90
9939;DHT22;5008;50.656;7.188;2023-04-24T14:07:10;16.60;99.90
9939;DHT22;5008;50.656;7.188;2023-04-24T14:09:37;16.00;99.90
9939;DHT22;5008;50.656;7.188;2023-04-24T14:12:05;15.50;99.90
9939;DHT22;5008;50.656;7.188;2023-04-24T14:14:32;15.00;99.90
9939;DHT22;5008;50.656;7.188;2023-04-24T14:16:59;14.60;99.90
9939;DHT22;5008;50.656;7.188;2023-04-24T14:19:26;14.30;99.90
9939;DHT22;5008;50.656;7.188;2023-04-24T14:21:52;14.10;99.90
9939;DHT22;5008;50.656;7.188;2023-04-24T14:24:21;13.90;99.90
9939;DHT22;5008;50.656;7.188;2023-04-24T14:26:47;14.00;99.90
9939;DHT22;5008;50.656;7.188;2023-04-24T14:29:15;14.00;99.90
9939;DHT22;5008;50.656;7.188;2023-04-24T14:31:42;14.60;99.90
9939;DHT22;5008;50.656;7.188;2023-04-24T14:34:10;16.10;99.90
9939;DHT22;5008;50.656;7.188;2023-04-24T14:36:37;16.80;99.90
9939;DHT22;5008;50.656;7.188;2023-04-24T14:39:04;16.90;99.90
9939;DHT22;5008;50.656;7.188;2023-04-24T14:41:32;16.60;99.90
9939;DHT22;5008;50.656;7.188;2023-04-24T14:44:01;16.20;99.90
9939;DHT22;5008;50.656;7.188;2023-04-24T14:46:29;15.70;99.90
9939;DHT22;5008;50.656;7.188;2023-04-24T14:48:56;15.60;99.90
9939;DHT22;5008;50.656;7.188;2023-04-24T14:51:23;15.90;99.90
9939;DHT22;5008;50.656;7.188;2023-04-24T14:53:50;15.60;99.90
9939;DHT22;5008;50.656;7.188;2023-04-24T14:56:17;15.20;99.90
9939;DHT22;5008;50.656;7.188;2023-04-24T14:58:44;14.80;99.90
9939;DHT22;5008;50.656;7.188;2023-04-24T15:01:11;14.50;99.90
9939;DHT22;5008;50.656;7.188;2023-04-24T15:03:39;14.30;99.90
9939;DHT22;5008;50.656;7.188;2023-04-24T15:06:06;14.40;99.90
9939;DHT22;5008;50.656;7.188;2023-04-24T15:08:33;14.50;99.90
9939;DHT22;5008;50.656;7.188;2023-04-24T15:11:00;14.50;99.90
9939;DHT22;5008;50.656;7.188;2023-04-24T15:13:27;14.40;99.90
9939;DHT22;5008;50.656;7.188;2023-04-24T15:15:54;14.20;99.90
9939;DHT22;5008;50.656;7.188;2023-04-24T15:18:21;14.00;99.90
9939;DHT22;5008;50.656;7.188;2023-04-24T15:20:49;13.90;99.90
9939;DHT22;5008;50.656;7.188;2023-04-24T15:23:16;13.60;99.90
9939;DHT22;5008;50.656;7.188;2023-04-24T15:25:43;13.70;99.90
9939;DHT22;5008;50.656;7.188;2023-04-24T15:28:10;13.70;99.90
9939;DHT22;5008;50.656;7.188;2023-04-24T15:30:37;13.60;99.90
9939;DHT22;5008;50.656;7.188;2023-04-24T15:33:03;13.60;99.90
9939;DHT22;5008;50.656;7.188;2023-04-24T15:35:30;14.00;99.90
9939;DHT22;5008;50.656;7.188;2023-04-24T15:37:59;16.30;99.90
9939;DHT22;5008;50.656;7.188;2023-04-24T15:40:28;18.40;99.90
9939;DHT22;5008;50.656;7.188;2023-04-24T15:42:55;19.60;99.90
9939;DHT22;5008;50.656;7.188;2023-04-24T15:45:22;19.20;99.40
9939;DHT22;5008;50.656;7.188;2023-04-24T15:47:50;17.70;99.90
9939;DHT22;5008;50.656;7.188;2023-04-24T15:50:16;16.90;99.90
9939;DHT22;5008;50.656;7.188;2023-04-24T15:52:44;16.50;99.90
9939;DHT22;5008;50.656;7.188;2023-04-24T15:55:12;15.80;99.90
9939;DHT22;5008;50.656;7.188;2023-04-24T15:57:39;15.30;99.90
9939;DHT22;5008;50.656;7.188;2023-04-24T16:00:07;14.90;99.90
9939;DHT22;5008;50.656;7.188;2023-04-24T16:02:35;14.60;99.90
9939;DHT22;5008;50.656;7.188;2023-04-24T16:05:02;14.40;99.90
9939;DHT22;5008;50.656;7.188;2023-04-24T16:07:30;14.20;99.90
9939;DHT22;5008;50.656;7.188;2023-04-24T16:10:00;14.00;99.90
9939;DHT22;5008;50.656;7.188;2023-04-24T16:12:28;14.00;99.90
9939;DHT22;5008;50.656;7.188;2023-04-24T16:14:55;14.00;99.90
9939;DHT22;5008;50.656;7.188;2023-04-24T16:17:22;13.80;99.90
9939;DHT22;5008;50.656;7.188;2023-04-24T16:19:49;13.80;99.90
9939;DHT22;5008;50.656;7.188;2023-04-24T16:22:16;13.80;99.90
9939;DHT22;5008;50.656;7.188;2023-04-24T16:24:43;13.70;99.90
9939;DHT22;5008;50.656;7.188;2023-04-24T16:27:12;13.70;99.90
9939;DHT22;5008;50.656;7.188;2023-04-24T16:29:41;13.50;99.90
9939;DHT22;5008;50.656;7.188;2023-04-24T16:32:11;13.50;99.90
9939;DHT22;5008;50.656;7.188;2023-04-24T16:34:39;13.40;99.90
9939;DHT22;5008;50.656;7.188;2023-04-24T16:37:09;13.40;99.90
9939;DHT22;5008;50.656;7.188;2023-04-24T16:39:40;13.40;99.90
9939;DHT22;5008;50.656;7.188;2023-04-24T16:42:09;13.30;99.90
9939;DHT22;5008;50.656;7.188;2023-04-24T16:44:37;13.10;99.90
9939;DHT22;5008;50.656;7.188;2023-04-24T16:47:06;13.00;99.90
9939;DHT22;5008;50.656;7.188;2023-04-24T16:49:34;13.10;99.90
9939;DHT22;5008;50.656;7.188;2023-04-24T16:52:01;13.00;99.90
9939;DHT22;5008;50.656;7.188;2023-04-24T16:54:28;13.00;99.90
9939;DHT22;5008;50.656;7.188;2023-04-24T16:57:00;12.90;99.90
9939;DHT22;5008;50.656;7.188;2023-04-24T16:59:29;12.80;99.90
9939;DHT22;5008;50.656;7.188;2023-04-24T17:01:58;12.90;99.90
9939;DHT22;5008;50.656;7.188;2023-04-24T17:04:26;12.90;99.90
9939;DHT22;5008;50.656;7.188;2023-04-24T17:06:54;13.00;99.90
9939;DHT22;5008;50.656;7.188;2023-04-24T17:09:21;13.00;99.90
9939;DHT22;5008;50.656;7.188;2023-04-24T17:11:48;12.90;99.90
9939;DHT22;5008;50.656;7.188;2023-04-24T17:14:18;12.80;99.90
9939;DHT22;5008;50.656;7.188;2023-04-24T17:16:47;12.90;99.90
9939;DHT22;5008;50.656;7.188;2023-04-24T17:19:16;12.80;99.90
9939;DHT22;5008;50.656;7.188;2023-04-24T17:21:45;12.80;99.90
9939;DHT22;5008;50.656;7.188;2023-04-24T17:24:12;12.80;99.90
9939;DHT22;5008;50.656;7.188;2023-04-24T17:26:40;12.70;99.90
9939;DHT22;5008;50.656;7.188;2023-04-24T17:29:07;12.70;99.90
9939;DHT22;5008;50.656;7.188;2023-04-24T17:31:35;12.80;99.90
9939;DHT22;5008;50.656;7.188;2023-04-24T17:34:02;12.70;99.90
9939;DHT22;5008;50.656;7.188;2023-04-24T17:36:29;12.70;99.90
9939;DHT22;5008;50.656;7.188;2023-04-24T17:38:58;12.60;99.90
9939;DHT22;5008;50.656;7.188;2023-04-24T17:41:30;12.50;99.90
9939;DHT22;5008;50.656;7.188;2023-04-24T17:43:58;12.50;99.90
9939;DHT22;5008;50.656;7.188;2023-04-24T17:46:28;12.60;99.90
9939;DHT22;5008;50.656;7.188;2023-04-24T17:48:58;12.50;99.90
9939;DHT22;5008;50.656;7.188;2023-04-24T17:51:31;12.50;99.90
9939;DHT22;5008;50.656;7.188;2023-04-24T17:54:03;12.40;99.90
9939;DHT22;5008;50.656;7.188;2023-04-24T17:56:30;12.40;99.90
9939;DHT22;5008;50.656;7.188;2023-04-24T17:58:57;12.30;99.90
9939;DHT22;5008;50.656;7.188;2023-04-24T18:01:24;12.30;99.90
9939;DHT22;5008;50.656;7.188;2023-04-24T18:03:52;12.20;99.90
9939;DHT22;5008;50.656;7.188;2023-04-24T18:06:19;12.20;99.90
9939;DHT22;5008;50.656;7.188;2023-04-24T18:08:47;12.10;99.90
9939;DHT22;5008;50.656;7.188;2023-04-24T18:11:18;12.10;99.90
9939;DHT22;5008;50.656;7.188;2023-04-24T18:13:50;12.10;99.90
9939;DHT22;5008;50.656;7.188;2023-04-24T18:16:17;12.10;99.90
9939;DHT22;5008;50.656;7.188;2023-04-24T18:18:47;12.00;99.90
9939;DHT22;5008;50.656;7.188;2023-04-24T18:21:17;11.90;99.90
9939;DHT22;5008;50.656;7.188;2023-04-24T18:23:45;11.90;99.90
9939;DHT22;5008;50.656;7.188;2023-04-24T18:26:12;12.00;99.90
9939;DHT22;5008;50.656;7.188;2023-04-24T18:28:42;11.90;99.90
9939;DHT22;5008;50.656;7.188;2023-04-24T18:31:10;11.90;99.90
9939;DHT22;5008;50.656;7.188;2023-04-24T18:33:40;11.90;99.90
9939;DHT22;5008;50.656;7.188;2023-04-24T18:36:12;11.80;99.90
9939;DHT22;5008;50.656;7.188;2023-04-24T18:38:41;11.80;99.90
9939;DHT22;5008;50.656;7.188;2023-04-24T18:41:09;11.70;99.90
9939;DHT22;5008;50.656;7.188;2023-04-24T18:43:36;11.70;99.90
9939;DHT22;5008;50.656;7.188;2023-04-24T18:46:06;11.60;99.90
9939;DHT22;5008;50.656;7.188;2023-04-24T18:48:46;11.50;99.90
9939;DHT22;5008;50.656;7.188;2023-04-24T18:51:18;11.50;99.90
9939;DHT22;5008;50.656;7.188;2023-04-24T18:53:45;11.40;99.90
9939;DHT22;5008;50.656;7.188;2023-04-24T18:56:13;11.40;99.90
9939;DHT22;5008;50.656;7.188;2023-04-24T18:58:41;11.40;99.90
9939;DHT22;5008;50.656;7.188;2023-04-24T19:01:12;11.30;99.90
9939;DHT22;5008;50.656;7.188;2023-04-24T19:03:39;11.20;99.90
9939;DHT22;5008;50.656;7.188;2023-04-24T19:06:06;11.20;99.90
9939;DHT22;5008;50.656;7.188;2023-04-24T19:08:33;11.10;99.90
9939;DHT22;5008;50.656;7.188;2023-04-24T19:11:03;11.10;99.90
9939;DHT22;5008;50.656;7.188;2023-04-24T19:13:30;11.20;99.90
9939;DHT22;5008;50.656;7.188;2023-04-24T19:15:57;11.20;99.90
9939;DHT22;5008;50.656;7.188;2023-04-24T19:18:25;11.20;99.90
9939;DHT22;5008;50.656;7.188;2023-04-24T19:20:53;11.20;99.90
9939;DHT22;5008;50.656;7.188;2023-04-24T19:23:21;11.20;99.90
9939;DHT22;5008;50.656;7.188;2023-04-24T19:25:48;11.30;99.90
9939;DHT22;5008;50.656;7.188;2023-04-24T19:28:18;11.30;99.90
9939;DHT22;5008;50.656;7.188;2023-04-24T19:30:48;11.30;99.90
9939;DHT22;5008;50.656;7.188;2023-04-24T19:33:26;11.20;99.90
9939;DHT22;5008;50.656;7.188;2023-04-24T19:36:02;11.30;99.90
9939;DHT22;5008;50.656;7.188;2023-04-24T19:38:30;11.30;99.90
9939;DHT22;5008;50.656;7.188;2023-04-24T19:40:57;11.30;99.90
9939;DHT22;5008;50.656;7.188;2023-04-24T19:43:25;11.10;99.90
9939;DHT22;5008;50.656;7.188;2023-04-24T19:45:52;11.10;99.90
9939;DHT22;5008;50.656;7.188;2023-04-24T19:48:19;11.10;99.90
9939;DHT22;5008;50.656;7.188;2023-04-24T19:50:47;11.10;99.90
9939;DHT22;5008;50.656;7.188;2023-04-24T19:53:14;11.00;99.90
9939;DHT22;5008;50.656;7.188;2023-04-24T19:55:44;11.00;99.90
9939;DHT22;5008;50.656;7.188;2023-04-24T19:58:12;11.00;99.90
9939;DHT22;5008;50.656;7.188;2023-04-24T20:00:42;10.90;99.90
9939;DHT22;5008;50.656;7.188;2023-04-24T20:03:15;11.00;99.90
9939;DHT22;5008;50.656;7.188;2023-04-24T20:05:43;11.00;99.90
9939;DHT22;5008;50.656;7.188;2023-04-24T20:08:12;11.00;99.90